Time;durP1;ratioP1;P1;durP2;ratioP2;P2;SDS_P1;SDS_P2;PMS_P1;PMS_P2;Temp;Humidity;BMP_temperature;BMP_pressure;BME280_temperature;BME280_humidity;BME280_pressure;Samples;Min_cycle;Max_cycle;Signal;HPM_P1;HPM_P2
2021/03/17 00:01:48;;;;;;;0.65;0.65;;;13.10;99.90;;;;;;4981873;28;20403;-89
2021/03/17 00:04:14;;;;;;;0.50;0.50;;;13.00;99.90;;;;;;4989089;28;20117;-89
2021/03/17 00:06:40;;;;;;;0.10;0.10;;;13.00;99.90;;;;;;4985141;28;20049;-89
2021/03/17 00:09:06;;;;;;;0.13;0.13;;;13.00;99.90;;;;;;4987455;28;20040;-90
2021/03/17 00:11:33;;;;;;;0.20;0.20;;;12.90;99.90;;;;;;4983685;28;20034;-89
2021/03/17 00:14:00;;;;;;;2.08;1.13;;;12.90;99.90;;;;;;4985433;28;20037;-90
2021/03/17 00:16:27;;;;;;;0.10;0.10;;;12.90;99.90;;;;;;4983330;28;20125;-89
2021/03/17 00:18:55;;;;;;;0.68;0.68;;;12.90;99.90;;;;;;4970738;28;20037;-91
2021/03/17 00:21:22;;;;;;;0.70;0.70;;;12.90;99.90;;;;;;4990694;28;20034;-92
2021/03/17 00:23:49;;;;;;;0.30;0.30;;;12.80;99.90;;;;;;4991044;28;20030;-91
2021/03/17 00:26:15;;;;;;;0.40;0.40;;;12.90;99.90;;;;;;4981773;28;20499;-92
2021/03/17 00:28:41;;;;;;;1.00;0.93;;;12.90;99.90;;;;;;4980684;28;20041;-92
2021/03/17 00:31:07;;;;;;;0.30;0.30;;;12.90;99.90;;;;;;4989891;28;20109;-93
2021/03/17 00:33:33;;;;;;;0.30;0.30;;;12.90;99.90;;;;;;4991136;28;20025;-92
2021/03/17 00:36:00;;;;;;;0.20;0.20;;;13.00;99.90;;;;;;4978316;28;20042;-91
2021/03/17 00:38:26;;;;;;;0.43;0.43;;;13.00;99.90;;;;;;4989432;28;20033;-91
2021/03/17 00:40:52;;;;;;;1.10;1.00;;;12.90;99.90;;;;;;4974587;28;20078;-91
2021/03/17 00:43:18;;;;;;;1.25;1.23;;;12.90;99.90;;;;;;4987885;28;20042;-92
2021/03/17 00:45:44;;;;;;;0.73;0.73;;;12.90;99.90;;;;;;4984199;28;20035;-92
2021/03/17 00:48:10;;;;;;;0.17;0.17;;;13.00;99.90;;;;;;4990592;28;20038;-92
2021/03/17 00:50:37;;;;;;;0.10;0.10;;;13.10;99.90;;;;;;4988422;28;20023;-92
2021/03/17 00:53:03;;;;;;;0.30;0.30;;;13.10;99.90;;;;;;4992884;28;20030;-95
2021/03/17 00:55:29;;;;;;;0.37;0.37;;;13.10;99.90;;;;;;4993349;28;20316;-95
2021/03/17 00:57:56;;;;;;;0.10;0.10;;;13.10;99.90;;;;;;4993750;28;20026;-94
2021/03/17 01:00:22;;;;;;;0.30;0.28;;;13.10;99.90;;;;;;4993349;28;20045;-94
2021/03/17 01:02:50;;;;;;;0.15;0.15;;;13.10;99.90;;;;;;4992669;28;20031;-94
2021/03/17 01:05:16;;;;;;;0.10;0.10;;;13.10;99.90;;;;;;4993539;28;20041;-93
2021/03/17 01:07:42;;;;;;;0.10;0.10;;;13.10;99.90;;;;;;4993655;28;20437;-94
2021/03/17 01:10:19;;;;;;;0.10;0.10;;;13.10;99.90;;;;;;4993489;28;20265;-94
2021/03/17 01:12:45;;;;;;;0.22;0.22;;;13.10;99.90;;;;;;4993075;28;20034;-95
2021/03/17 01:15:15;;;;;;;0.10;0.10;;;13.10;99.90;;;;;;4993253;28;20510;-94
2021/03/17 01:17:41;;;;;;;0.15;0.15;;;13.10;99.90;;;;;;4992357;28;20058;-94
2021/03/17 01:20:09;;;;;;;0.10;0.10;;;13.10;99.90;;;;;;4993401;28;20019;-95
2021/03/17 01:22:35;;;;;;;0.10;0.10;;;13.10;99.90;;;;;;4993357;28;20386;-94
2021/03/17 01:25:02;;;;;;;0.47;0.47;;;13.10;99.90;;;;;;4992796;28;20030;-92
2021/03/17 01:27:28;;;;;;;0.10;0.10;;;13.10;99.90;;;;;;4987735;28;20034;-89
2021/03/17 01:29:54;;;;;;;0.10;0.10;;;13.10;99.90;;;;;;4986762;28;20486;-90
2021/03/17 01:32:20;;;;;;;0.20;0.20;;;13.10;99.90;;;;;;4983118;28;20037;-91
2021/03/17 01:34:46;;;;;;;0.50;0.50;;;13.00;99.90;;;;;;4987624;28;20046;-91
2021/03/17 01:37:12;;;;;;;0.43;0.30;;;13.00;99.90;;;;;;4987541;28;20383;-91
2021/03/17 01:39:39;;;;;;;0.10;0.10;;;13.10;99.90;;;;;;4987812;28;20037;-91
2021/03/17 01:42:05;;;;;;;0.10;0.10;;;13.00;99.90;;;;;;4977151;28;20029;-92
2021/03/17 01:44:31;;;;;;;0.10;0.10;;;13.00;99.90;;;;;;4983577;28;20414;-92
2021/03/17 01:46:57;;;;;;;0.13;0.13;;;12.80;99.90;;;;;;4981027;28;20058;-92
2021/03/17 01:49:24;;;;;;;0.35;0.35;;;12.70;99.90;;;;;;4994918;28;20466;-93
2021/03/17 01:51:50;;;;;;;0.65;0.57;;;12.70;99.90;;;;;;4980044;28;20112;-92
2021/03/17 01:54:16;;;;;;;0.10;0.10;;;12.80;99.90;;;;;;4993514;28;20118;-92
2021/03/17 01:56:43;;;;;;;0.32;0.32;;;12.80;99.90;;;;;;4982174;28;20376;-92
2021/03/17 01:59:09;;;;;;;0.10;0.10;;;13.00;99.90;;;;;;4995352;28;20042;-92
2021/03/17 02:01:36;;;;;;;0.10;0.10;;;13.10;99.90;;;;;;4993363;28;20022;-93
2021/03/17 02:04:04;;;;;;;0.17;0.17;;;13.00;99.90;;;;;;4994896;28;20023;-92
2021/03/17 02:06:30;;;;;;;0.10;0.10;;;13.10;99.90;;;;;;4991960;28;20026;-92
2021/03/17 02:08:56;;;;;;;0.10;0.10;;;13.10;99.90;;;;;;4991881;28;20117;-92
2021/03/17 02:11:22;;;;;;;0.10;0.10;;;13.10;99.90;;;;;;4991208;28;20031;-92
2021/03/17 02:13:59;;;;;;;0.20;0.20;;;13.10;99.90;;;;;;4981050;28;20089;-92
2021/03/17 02:16:38;;;;;;;0.17;0.17;;;13.10;99.90;;;;;;4989601;28;20785;-92
2021/03/17 02:19:13;;;;;;;0.40;0.40;;;13.10;99.90;;;;;;4980513;28;20018;-91
2021/03/17 02:22:25;;;;;;;3.85;1.38;;;13.00;99.90;;;;;;4981685;28;20495;-91
2021/03/17 02:24:57;;;;;;;0.10;0.10;;;13.10;99.90;;;;;;4985911;28;20038;-91
2021/03/17 02:28:08;;;;;;;0.10;0.10;;;13.10;99.90;;;;;;4986146;28;20478;-91
2021/03/17 02:30:47;;;;;;;0.13;0.13;;;13.00;99.90;;;;;;4993059;28;20172;-90
2021/03/17 02:33:35;;;;;;;0.10;0.10;;;12.70;99.90;;;;;;4985015;28;20133;-91
2021/03/17 02:36:19;;;;;;;0.45;0.45;;;12.60;99.90;;;;;;4988172;28;20387;-92
2021/03/17 02:39:08;;;;;;;0.32;0.32;;;12.50;99.90;;;;;;4994032;28;20023;-91
2021/03/17 02:41:43;;;;;;;0.20;0.20;;;12.40;99.90;;;;;;4990943;28;20022;-91
2021/03/17 02:44:16;;;;;;;0.15;0.15;;;12.50;99.90;;;;;;4988307;28;20105;-90
2021/03/17 02:46:46;;;;;;;0.10;0.10;;;12.90;99.90;;;;;;4986147;28;20038;-91
2021/03/17 02:49:26;;;;;;;0.10;0.10;;;13.00;99.90;;;;;;4984521;28;20054;-90
2021/03/17 02:51:57;;;;;;;0.35;0.32;;;13.10;99.90;;;;;;4990658;28;20514;-90
2021/03/17 02:54:24;;;;;;;0.10;0.10;;;13.10;99.90;;;;;;4990629;28;20486;-91
2021/03/17 02:57:01;;;;;;;0.00;0.00;;;13.10;99.90;;;;;;4989479;28;20057;-91
2021/03/17 02:59:30;;;;;;;0.20;0.20;;;12.90;99.90;;;;;;4989931;28;20057;-91
2021/03/17 03:01:59;;;;;;;0.38;0.38;;;12.60;99.90;;;;;;4988691;28;20439;-90
2021/03/17 03:04:27;;;;;;;0.32;0.32;;;12.50;99.90;;;;;;4988811;28;20058;-91
2021/03/17 03:06:56;;;;;;;1.58;0.45;;;12.30;99.90;;;;;;4992386;28;20030;-91
2021/03/17 03:09:25;;;;;;;0.20;0.20;;;12.10;99.90;;;;;;4994001;28;20034;-92
2021/03/17 03:11:53;;;;;;;0.05;0.05;;;12.10;99.90;;;;;;4979228;28;20041;-91
2021/03/17 03:14:22;;;;;;;0.10;0.10;;;12.10;99.90;;;;;;4984997;28;20125;-94
2021/03/17 03:16:51;;;;;;;0.15;0.15;;;12.10;99.90;;;;;;4993698;28;20047;-93
2021/03/17 03:19:19;;;;;;;0.10;0.10;;;12.30;99.90;;;;;;4975625;28;20042;-93
2021/03/17 03:21:46;;;;;;;2.47;0.55;;;12.40;99.90;;;;;;4974762;28;20110;-91
2021/03/17 03:24:14;;;;;;;;;;;12.70;99.90;;;;;;4988615;28;20034;-92
2021/03/17 03:26:40;;;;;;;0.65;0.52;;;12.80;99.90;;;;;;4985115;28;20389;-93
2021/03/17 03:29:07;;;;;;;0.30;0.30;;;12.90;99.90;;;;;;4974923;28;20038;-92
2021/03/17 03:31:33;;;;;;;0.10;0.10;;;12.90;99.90;;;;;;4985548;28;20035;-93
2021/03/17 03:34:02;;;;;;;0.17;0.17;;;13.00;99.90;;;;;;4979758;28;20030;-93
2021/03/17 03:36:29;;;;;;;0.05;0.05;;;12.90;99.90;;;;;;4993199;28;20121;-93
2021/03/17 03:38:59;;;;;;;0.15;0.15;;;13.00;99.90;;;;;;4988462;28;20023;-93
2021/03/17 03:41:26;;;;;;;0.30;0.30;;;13.00;99.90;;;;;;4977761;28;20403;-92
2021/03/17 03:43:52;;;;;;;0.40;0.40;;;13.00;99.90;;;;;;4987471;28;20465;-92
2021/03/17 03:46:18;;;;;;;0.40;0.35;;;13.00;99.90;;;;;;4987623;28;20031;-92
2021/03/17 03:48:44;;;;;;;0.32;0.32;;;13.10;99.90;;;;;;4993049;28;20037;-92
2021/03/17 03:51:25;;;;;;;0.10;0.10;;;13.10;99.90;;;;;;4993405;28;20038;-94
2021/03/17 03:54:06;;;;;;;0.10;0.10;;;13.00;99.90;;;;;;4987120;28;20250;-91
2021/03/17 03:56:54;;;;;;;0.20;0.20;;;13.10;99.90;;;;;;4991612;28;20026;-91
2021/03/17 03:59:31;;;;;;;0.22;0.22;;;13.10;99.90;;;;;;4973481;28;20169;-93
2021/03/17 04:02:13;;;;;;;0.10;0.10;;;13.20;99.90;;;;;;4973929;28;20110;-93
2021/03/17 04:04:45;;;;;;;0.10;0.10;;;13.10;99.90;;;;;;4976207;28;20506;-92
2021/03/17 04:07:15;;;;;;;1.75;0.65;;;13.20;99.90;;;;;;4990036;28;20026;-91
2021/03/17 04:09:44;;;;;;;0.63;0.40;;;13.20;99.90;;;;;;4979382;28;20101;-91
2021/03/17 04:12:12;;;;;;;0.20;0.20;;;13.10;99.90;;;;;;4984652;28;20449;-90
2021/03/17 04:14:42;;;;;;;0.75;0.40;;;13.10;99.90;;;;;;4979965;28;20496;-90
2021/03/17 04:17:49;;;;;;;0.10;0.10;;;13.10;99.90;;;;;;4985121;28;20034;-91
2021/03/17 04:20:20;;;;;;;0.68;0.68;;;13.10;99.90;;;;;;4977438;28;20406;-92
2021/03/17 04:22:49;;;;;;;0.30;0.30;;;13.00;99.90;;;;;;4993075;28;20113;-92
2021/03/17 04:25:18;;;;;;;0.28;0.28;;;12.90;99.90;;;;;;4992473;28;20502;-93
2021/03/17 04:27:48;;;;;;;0.10;0.10;;;12.80;99.90;;;;;;4994119;28;20030;-93
2021/03/17 04:30:16;;;;;;;0.40;0.40;;;12.70;99.90;;;;;;4993449;28;20113;-93
2021/03/17 04:32:44;;;;;;;0.30;0.30;;;12.70;99.90;;;;;;4993236;28;20034;-92
2021/03/17 04:35:12;;;;;;;0.20;0.20;;;12.60;99.90;;;;;;4993055;28;20104;-93
2021/03/17 04:37:40;;;;;;;0.15;0.15;;;12.70;99.90;;;;;;4992925;28;20022;-93
2021/03/17 04:40:07;;;;;;;0.25;0.25;;;12.80;99.90;;;;;;4993121;28;20030;-94
2021/03/17 04:42:34;;;;;;;0.15;0.15;;;12.80;99.90;;;;;;4993074;28;20149;-93
2021/03/17 04:45:01;;;;;;;0.30;0.30;;;12.80;99.90;;;;;;4992773;28;20425;-90
2021/03/17 04:47:28;;;;;;;0.47;0.45;;;12.90;99.90;;;;;;4995518;28;20030;-92
2021/03/17 04:49:55;;;;;;;0.20;0.20;;;12.80;99.90;;;;;;4976127;28;20038;-92
2021/03/17 04:52:24;;;;;;;0.43;0.32;;;12.80;99.90;;;;;;4983263;28;20398;-92
2021/03/17 04:54:51;;;;;;;0.20;0.20;;;12.70;99.90;;;;;;4992173;28;20451;-91
2021/03/17 04:57:21;;;;;;;0.13;0.13;;;12.70;99.90;;;;;;4988694;28;20467;-91
2021/03/17 04:59:49;;;;;;;0.25;0.25;;;12.60;99.90;;;;;;4991922;28;20023;-92
2021/03/17 05:02:24;;;;;;;0.52;0.30;;;12.50;99.90;;;;;;4991942;28;20030;-91
2021/03/17 05:04:52;;;;;;;1.25;0.82;;;12.40;99.90;;;;;;4975110;28;20542;-91
2021/03/17 05:07:19;;;;;;;0.65;0.43;;;12.30;99.90;;;;;;4970849;28;20459;-91
2021/03/17 05:09:46;;;;;;;1.63;1.08;;;12.30;99.90;;;;;;4999203;28;20026;-91
2021/03/17 05:12:15;;;;;;;0.20;0.20;;;12.00;99.90;;;;;;4991963;28;20030;-94
2021/03/17 05:14:42;;;;;;;0.20;0.20;;;11.80;99.90;;;;;;4992586;28;20553;-93
2021/03/17 05:17:09;;;;;;;0.30;0.30;;;11.80;99.90;;;;;;4993244;28;20121;-93
2021/03/17 05:19:37;;;;;;;0.20;0.20;;;11.50;99.90;;;;;;4994593;28;20026;-92
2021/03/17 05:22:04;;;;;;;0.15;0.15;;;11.50;99.90;;;;;;4996842;28;20033;-93
2021/03/17 05:24:32;;;;;;;0.38;0.38;;;11.30;99.90;;;;;;4995724;28;20018;-92
2021/03/17 05:26:59;;;;;;;;;;;11.20;99.90;;;;;;4995286;28;20052;-92
2021/03/17 05:29:26;;;;;;;0.45;0.45;;;11.20;99.90;;;;;;4993568;28;20297;-91
2021/03/17 05:31:53;;;;;;;0.10;0.10;;;11.20;99.90;;;;;;4993350;28;20030;-92
2021/03/17 05:34:19;;;;;;;0.10;0.10;;;11.00;99.90;;;;;;4988522;28;20030;-91
2021/03/17 05:36:47;;;;;;;0.10;0.10;;;10.80;99.90;;;;;;4993855;28;20117;-92
2021/03/17 05:39:13;;;;;;;0.20;0.20;;;10.60;99.90;;;;;;4994038;28;20021;-91
2021/03/17 05:41:39;;;;;;;0.10;0.10;;;10.40;99.90;;;;;;4993265;28;20054;-90
2021/03/17 05:44:06;;;;;;;0.13;0.13;;;10.40;99.90;;;;;;4991146;28;20053;-90
2021/03/17 05:46:33;;;;;;;0.13;0.13;;;10.30;99.90;;;;;;4980565;28;20026;-93
2021/03/17 05:49:00;;;;;;;0.10;0.10;;;10.50;99.90;;;;;;4992315;28;20054;-95
2021/03/17 05:51:26;;;;;;;;;;;10.40;99.90;;;;;;4997122;28;20033;-96
2021/03/17 05:53:52;;;;;;;2.33;1.23;;;10.30;99.90;;;;;;4996674;28;19916;-93
2021/03/17 05:56:18;;;;;;;1.08;1.08;;;10.30;99.90;;;;;;4996848;28;20450;-92
2021/03/17 05:58:44;;;;;;;1.55;0.75;;;10.40;99.90;;;;;;4983523;28;20053;-93
2021/03/17 06:01:13;;;;;;;1.40;1.30;;;10.60;99.90;;;;;;4982914;28;20041;-93
2021/03/17 06:03:39;;;;;;;0.10;0.10;;;10.50;99.90;;;;;;4983320;28;20451;-94
2021/03/17 06:06:08;;;;;;;0.10;0.10;;;10.40;99.90;;;;;;4984070;28;20034;-93
2021/03/17 06:08:43;;;;;;;0.25;0.25;;;10.50;99.90;;;;;;4993859;28;20117;-90
2021/03/17 06:11:11;;;;;;;0.20;0.20;;;10.40;99.90;;;;;;4993023;28;20038;-92
2021/03/17 06:13:45;;;;;;;0.47;0.30;;;10.30;99.90;;;;;;4992046;28;20121;-92
2021/03/17 06:16:16;;;;;;;0.03;0.03;;;10.20;99.90;;;;;;4990893;28;20038;-91
2021/03/17 06:18:46;;;;;;;0.10;0.10;;;10.30;99.90;;;;;;4989957;28;20022;-91
2021/03/17 06:21:18;;;;;;;0.32;0.32;;;10.30;99.90;;;;;;4996028;28;20800;-91
2021/03/17 06:23:51;;;;;;;0.20;0.20;;;10.20;99.90;;;;;;4997446;28;20034;-92
2021/03/17 06:26:19;;;;;;;0.32;0.32;;;10.10;99.90;;;;;;4999712;28;20033;-90
2021/03/17 06:28:47;;;;;;;0.10;0.10;;;10.00;99.90;;;;;;5005743;28;20064;-93
2021/03/17 06:31:14;;;;;;;0.17;0.17;;;9.80;99.90;;;;;;4991209;28;20029;-92
2021/03/17 06:33:42;;;;;;;0.10;0.10;;;9.80;99.90;;;;;;4990850;28;20455;-93
2021/03/17 06:36:18;;;;;;;0.10;0.10;;;9.80;99.90;;;;;;4974676;28;20030;-92
2021/03/17 06:38:46;;;;;;;0.95;0.95;;;9.80;99.90;;;;;;4990314;28;20026;-93
2021/03/17 06:41:14;;;;;;;0.00;0.00;;;9.90;99.90;;;;;;4988289;28;20023;-92
2021/03/17 06:43:43;;;;;;;0.20;0.20;;;9.80;99.90;;;;;;4992482;28;20034;-92
2021/03/17 06:46:13;;;;;;;0.35;0.35;;;9.90;99.90;;;;;;4995368;28;20526;-94
2021/03/17 06:48:40;;;;;;;1.10;0.77;;;9.90;99.90;;;;;;4995083;28;20092;-93
2021/03/17 06:51:18;;;;;;;0.20;0.20;;;9.80;99.90;;;;;;4994444;28;20121;-91
2021/03/17 06:53:45;;;;;;;1.75;1.55;;;9.90;99.90;;;;;;5002478;28;20058;-92
2021/03/17 06:56:12;;;;;;;;;;;10.00;99.90;;;;;;4992235;28;20116;-95
2021/03/17 06:58:40;;;;;;;0.30;0.30;;;9.90;99.90;;;;;;4993817;28;19916;-93
2021/03/17 07:01:27;;;;;;;0.95;0.88;;;9.70;99.90;;;;;;4994686;28;20026;-94
2021/03/17 07:04:00;;;;;;;0.10;0.10;;;9.70;99.90;;;;;;4994954;28;20030;-94
2021/03/17 07:06:27;;;;;;;0.10;0.10;;;9.80;99.90;;;;;;4994262;28;20030;-95
2021/03/17 07:08:54;;;;;;;14.23;0.75;;;9.90;99.90;;;;;;4994635;28;20030;-94
2021/03/17 07:11:36;;;;;;;0.10;0.10;;;10.10;99.90;;;;;;4980647;28;20031;-94
2021/03/17 07:14:04;;;;;;;0.20;0.20;;;10.70;99.90;;;;;;4981823;28;20100;-95
2021/03/17 07:16:36;;;;;;;0.20;0.20;;;10.60;99.90;;;;;;4994307;28;20089;-93
2021/03/17 07:19:04;;;;;;;3.83;1.15;;;11.10;99.90;;;;;;4994525;28;20482;-93
2021/03/17 07:21:38;;;;;;;0.28;0.28;;;12.40;99.90;;;;;;4994789;28;20368;-95
2021/03/17 07:24:09;;;;;;;0.17;0.17;;;13.20;99.90;;;;;;4994890;28;20027;-95
2021/03/17 07:26:39;;;;;;;0.52;0.25;;;13.40;99.90;;;;;;4994335;28;20121;-93
2021/03/17 07:29:13;;;;;;;0.65;0.65;;;13.80;99.90;;;;;;4981736;28;20030;-95
2021/03/17 07:31:49;;;;;;;0.10;0.10;;;13.30;99.90;;;;;;4995420;28;20026;-95
2021/03/17 07:34:22;;;;;;;0.10;0.10;;;14.60;99.90;;;;;;4994956;28;20117;-94
2021/03/17 07:36:56;;;;;;;0.20;0.20;;;12.40;99.90;;;;;;4994946;28;20498;-94
2021/03/17 07:39:30;;;;;;;0.00;0.00;;;11.00;99.90;;;;;;4994700;28;20109;-95
2021/03/17 07:41:59;;;;;;;0.10;0.10;;;10.30;20.90;;;;;;4994738;28;20034;-94
2021/03/17 07:44:26;;;;;;;0.38;0.38;;;9.80;99.90;;;;;;4993871;28;20076;-96
2021/03/17 07:46:55;;;;;;;0.22;0.22;;;9.30;1.00;;;;;;4993952;28;20034;-95
2021/03/17 07:49:26;;;;;;;0.10;0.10;;;8.20;99.90;;;;;;4992453;28;20041;-94
2021/03/17 07:51:59;;;;;;;0.50;0.50;;;8.30;99.90;;;;;;4981989;28;20061;-91
2021/03/17 07:54:33;;;;;;;0.22;0.22;;;7.80;99.90;;;;;;4992904;28;20054;-94
2021/03/17 07:57:04;;;;;;;20.38;0.70;;;7.60;99.90;;;;;;4994292;28;20053;-94
2021/03/17 07:59:31;;;;;;;1.77;0.95;;;7.30;99.90;;;;;;4992251;28;20018;-94
2021/03/17 08:01:58;;;;;;;0.10;0.10;;;7.60;99.90;;;;;;4986079;28;20499;-94
2021/03/17 08:04:30;;;;;;;0.03;0.03;;;7.60;99.90;;;;;;4973353;28;20030;-92
2021/03/17 08:07:04;;;;;;;0.52;0.52;;;8.40;1.00;;;;;;5005647;28;20061;-94
2021/03/17 08:09:32;;;;;;;0.88;0.60;;;8.70;99.90;;;;;;4997309;28;20549;-94
2021/03/17 08:12:02;;;;;;;0.32;0.32;;;8.50;99.90;;;;;;4994377;28;20044;-95
2021/03/17 08:14:29;;;;;;;10.68;0.85;;;9.10;99.90;;;;;;4998422;28;20030;-93
2021/03/17 08:16:55;;;;;;;;;;;10.30;99.90;;;;;;4995349;28;20406;-96
2021/03/17 08:19:29;;;;;;;1.63;0.93;;;12.00;99.90;;;;;;4993706;28;19909;-93
2021/03/17 08:22:15;;;;;;;17.63;0.90;;;11.90;99.90;;;;;;4994071;28;20053;-95
2021/03/17 08:24:43;;;;;;;0.10;0.10;;;15.00;99.90;;;;;;4993315;28;20034;-94
2021/03/17 08:27:09;;;;;;;0.55;0.55;;;12.60;99.90;;;;;;4993179;28;20050;-95
2021/03/17 08:29:45;;;;;;;0.52;0.45;;;15.40;99.90;;;;;;4993432;28;20037;-94
2021/03/17 08:36:20;;;;;;;0.88;0.40;;;10.50;99.90;;;;;;4994123;28;20056;-94
2021/03/17 08:38:57;;;;;;;0.60;0.55;;;9.80;99.90;;;;;;4993539;28;20076;-93
2021/03/17 08:44:46;;;;;;;0.10;0.10;;;10.00;99.90;;;;;;4993906;28;20416;-93
2021/03/17 08:47:17;;;;;;;1.20;0.57;;;11.80;99.90;;;;;;4991463;28;20474;-93
2021/03/17 08:49:45;;;;;;;0.40;0.25;;;10.30;99.90;;;;;;4987695;28;20034;-93
2021/03/17 08:52:19;;;;;;;0.10;0.10;;;9.80;99.90;;;;;;4972424;28;20015;-94
2021/03/17 08:55:07;;;;;;;0.10;0.10;;;9.80;99.90;;;;;;4976344;28;20041;-92
2021/03/17 08:58:09;;;;;;;0.32;0.32;;;10.50;99.90;;;;;;4994991;28;20028;-93
2021/03/17 09:00:54;;;;;;;0.10;0.10;;;9.90;99.90;;;;;;4929549;29;20027;-93
2021/03/17 09:03:32;;;;;;;0.00;0.00;;;9.30;99.90;;;;;;4939799;29;20031;-92
2021/03/17 09:06:26;;;;;;;0.10;0.10;;;8.80;99.90;;;;;;4936135;29;20035;-93
2021/03/17 09:08:55;;;;;;;3.20;0.40;;;9.80;99.90;;;;;;4916870;29;20039;-93
2021/03/17 09:11:31;;;;;;;0.10;0.10;;;10.70;99.90;;;;;;4936604;29;20035;-92
2021/03/17 09:14:05;;;;;;;0.75;0.75;;;10.50;99.90;;;;;;4939139;29;20265;-94
2021/03/17 09:16:36;;;;;;;0.10;0.10;;;10.40;99.90;;;;;;4939139;29;20055;-93
2021/03/17 09:19:11;;;;;;;0.10;0.10;;;12.20;99.90;;;;;;4938974;29;20034;-93
2021/03/17 09:21:42;;;;;;;0.10;0.10;;;14.20;99.90;;;;;;4955220;29;20102;-93
2021/03/17 09:24:47;;;;;;;0.47;0.47;;;13.10;99.90;;;;;;4938550;29;20032;-93
2021/03/17 09:27:13;;;;;;;1.38;0.80;;;14.10;99.90;;;;;;4879088;29;20078;-94
2021/03/17 09:29:39;;;;;;;0.10;0.10;;;13.00;99.90;;;;;;4863753;29;20025;-93
2021/03/17 09:32:07;;;;;;;0.20;0.20;;;12.40;99.90;;;;;;4863638;29;20902;-92
2021/03/17 09:34:35;;;;;;;0.10;0.10;;;10.60;99.90;;;;;;4871958;29;20127;-94
2021/03/17 09:37:07;;;;;;;0.20;0.20;;;9.80;99.90;;;;;;4897765;29;20028;-92
2021/03/17 09:39:35;;;;;;;0.57;0.57;;;11.20;99.90;;;;;;4890097;29;20074;-93
2021/03/17 09:42:02;;;;;;;4.25;0.45;;;11.50;99.90;;;;;;4877169;29;20141;-93
2021/03/17 09:44:28;;;;;;;0.10;0.10;;;10.00;99.90;;;;;;4882271;29;20032;-93
2021/03/17 09:46:55;;;;;;;0.10;0.10;;;9.80;99.90;;;;;;4882239;29;20032;-92
2021/03/17 09:49:24;;;;;;;0.10;0.10;;;9.90;99.90;;;;;;4882956;29;20163;-93
2021/03/17 09:51:58;;;;;;;0.10;0.10;;;10.00;99.90;;;;;;4882846;29;20847;-93
2021/03/17 09:54:28;;;;;;;0.22;0.13;;;9.50;99.90;;;;;;4884421;29;20112;-93
2021/03/17 09:56:57;;;;;;;0.10;0.10;;;9.90;99.90;;;;;;4877514;28;20619;-93
2021/03/17 09:59:39;;;;;;;0.10;0.10;;;9.50;99.90;;;;;;4994312;28;20027;-93
2021/03/17 10:02:10;;;;;;;0.00;0.00;;;10.60;99.90;;;;;;4981684;28;20125;-93
2021/03/17 10:04:46;;;;;;;0.10;0.10;;;12.30;99.90;;;;;;4988666;28;20030;-93
2021/03/17 10:07:14;;;;;;;0.10;0.10;;;12.30;99.90;;;;;;4974467;28;20035;-93
2021/03/17 10:09:42;;;;;;;0.10;0.10;;;17.50;99.90;;;;;;4988603;28;20114;-93
2021/03/17 10:12:21;;;;;;;0.10;0.10;;;12.60;99.90;;;;;;4993667;28;20030;-92
2021/03/17 10:14:49;;;;;;;0.10;0.10;;;11.70;99.90;;;;;;4980132;28;20062;-92
2021/03/17 10:17:19;;;;;;;0.10;0.10;;;11.70;99.90;;;;;;4993560;28;20026;-92
2021/03/17 10:20:03;;;;;;;0.10;0.10;;;10.30;99.90;;;;;;4980786;28;20031;-93
2021/03/17 10:22:30;;;;;;;0.10;0.10;;;10.30;99.90;;;;;;4997424;28;20018;-92
2021/03/17 10:24:58;;;;;;;0.10;0.10;;;10.10;99.90;;;;;;4993785;28;20040;-93
2021/03/17 10:27:33;;;;;;;0.85;0.82;;;10.00;99.90;;;;;;4973757;28;20027;-93
2021/03/17 10:30:01;;;;;;;0.20;0.20;;;10.20;99.90;;;;;;4986926;28;20112;-92
2021/03/17 10:32:27;;;;;;;0.10;0.10;;;14.40;99.90;;;;;;4992788;28;20161;-93
2021/03/17 10:34:53;;;;;;;0.10;0.10;;;15.30;99.90;;;;;;4981559;28;20109;-93
2021/03/17 10:37:21;;;;;;;0.10;0.10;;;12.30;99.90;;;;;;4990957;28;20030;-94
2021/03/17 10:39:48;;;;;;;0.28;0.28;;;11.30;99.90;;;;;;4993660;28;20037;-92
2021/03/17 10:42:21;;;;;;;0.17;0.17;;;10.90;99.90;;;;;;4992794;28;20050;-93
2021/03/17 10:45:21;;;;;;;0.00;0.00;;;10.60;99.90;;;;;;4985026;28;20030;-93
2021/03/17 10:47:48;;;;;;;0.10;0.10;;;10.40;99.90;;;;;;4941476;28;20046;-93
2021/03/17 10:50:32;;;;;;;0.10;0.10;;;10.50;99.90;;;;;;4944941;28;20379;-93
2021/03/17 10:52:58;;;;;;;0.05;0.05;;;10.90;99.90;;;;;;4956166;28;20091;-93
2021/03/17 10:55:29;;;;;;;0.10;0.10;;;11.40;99.90;;;;;;4948022;29;20097;-93
2021/03/17 10:58:16;;;;;;;0.00;0.00;;;12.00;99.90;;;;;;4955003;28;20186;-92
2021/03/17 11:00:42;;;;;;;;;;;16.40;99.90;;;;;;4957216;28;20042;-94
2021/03/17 11:03:41;;;;;;;5.28;1.45;;;12.10;99.90;;;;;;4956540;28;19906;-93
2021/03/17 11:06:20;;;;;;;0.10;0.10;;;11.70;99.90;;;;;;4918169;29;20035;-93
2021/03/17 11:09:04;;;;;;;1.88;0.98;;;11.80;99.90;;;;;;4918361;29;20495;-92
2021/03/17 11:11:35;;;;;;;0.10;0.10;;;12.40;99.90;;;;;;4917977;29;20075;-92
2021/03/17 11:14:01;;;;;;;0.10;0.10;;;11.20;99.90;;;;;;4915021;29;20460;-92
2021/03/17 11:16:29;;;;;;;0.10;0.10;;;10.50;99.90;;;;;;4927694;29;20050;-93
2021/03/17 11:19:00;;;;;;;0.10;0.10;;;10.00;99.90;;;;;;4904447;29;20024;-92
2021/03/17 11:21:28;;;;;;;0.40;0.40;;;9.80;99.90;;;;;;4917923;29;20032;-93
2021/03/17 11:24:00;;;;;;;0.20;0.20;;;10.10;99.90;;;;;;4914323;29;20434;-92
2021/03/17 11:26:41;;;;;;;1.65;0.75;;;9.90;99.90;;;;;;4919627;29;20131;-93
2021/03/17 11:29:27;;;;;;;0.00;0.00;;;10.90;99.90;;;;;;4924800;29;20044;-92
2021/03/17 11:32:04;;;;;;;0.10;0.10;;;11.20;99.90;;;;;;4917409;29;20079;-94
2021/03/17 11:34:30;;;;;;;;;;;12.40;99.90;;;;;;4910243;29;20304;-93
2021/03/17 11:36:56;;;;;;;0.10;0.10;;;11.40;99.90;;;;;;4917055;29;20430;-93
2021/03/17 11:39:23;;;;;;;1.17;1.08;;;13.50;99.90;;;;;;4921352;29;20114;-93
2021/03/17 11:41:50;;;;;;;0.10;0.10;;;12.60;99.90;;;;;;4957682;28;20149;-94
2021/03/17 11:44:21;;;;;;;0.17;0.17;;;12.90;99.90;;;;;;4992394;28;20117;-94
2021/03/17 11:46:47;;;;;;;0.52;0.52;;;11.80;99.90;;;;;;4974529;28;20034;-93
2021/03/17 11:49:16;;;;;;;0.35;0.35;;;10.90;99.90;;;;;;4993180;28;20026;-93
2021/03/17 11:51:46;;;;;;;0.10;0.10;;;11.20;99.90;;;;;;4992046;28;20045;-93
2021/03/17 11:54:14;;;;;;;0.10;0.10;;;11.30;99.90;;;;;;4980030;28;20356;-94
2021/03/17 11:56:40;;;;;;;0.20;0.20;;;11.30;99.90;;;;;;4962694;28;20034;-93
2021/03/17 11:59:07;;;;;;;;;;;11.10;99.90;;;;;;4989759;28;20097;-93
2021/03/17 12:01:33;;;;;;;0.10;0.10;;;11.20;99.90;;;;;;4984945;28;19913;-93
2021/03/17 12:04:00;;;;;;;0.93;0.65;;;11.80;99.90;;;;;;4997032;28;20045;-92
2021/03/17 12:06:30;;;;;;;2.10;0.50;;;11.20;99.90;;;;;;5001250;28;20041;-92
2021/03/17 12:08:56;;;;;;;0.10;0.10;;;10.60;99.90;;;;;;4992122;28;20046;-93
2021/03/17 12:11:23;;;;;;;0.10;0.10;;;10.30;99.90;;;;;;4989786;28;20039;-93
2021/03/17 12:13:52;;;;;;;0.20;0.10;;;10.60;99.90;;;;;;4976424;28;20038;-93
2021/03/17 12:16:20;;;;;;;3.90;1.92;;;10.70;99.90;;;;;;4964118;28;20051;-93
2021/03/17 12:18:48;;;;;;;0.15;0.15;;;11.00;99.90;;;;;;4995327;28;20023;-94
2021/03/17 12:21:16;;;;;;;0.00;0.00;;;11.20;99.90;;;;;;4987904;28;20038;-94
2021/03/17 12:23:44;;;;;;;1.60;0.98;;;11.20;99.90;;;;;;4989359;28;20026;-93
2021/03/17 12:26:11;;;;;;;;;;;11.80;99.90;;;;;;4992747;28;20029;-93
2021/03/17 12:28:38;;;;;;;0.52;0.52;;;11.80;99.90;;;;;;4984492;28;19912;-93
2021/03/17 12:31:05;;;;;;;;;;;11.50;99.90;;;;;;4999774;28;20044;-93
2021/03/17 12:33:33;;;;;;;0.00;0.00;;;11.40;99.90;;;;;;4987303;28;19921;-94
2021/03/17 12:36:00;;;;;;;0.10;0.10;;;11.40;99.90;;;;;;4992064;28;20053;-94
2021/03/17 12:38:26;;;;;;;;;;;11.40;99.90;;;;;;4977330;28;20026;-93
2021/03/17 12:40:52;;;;;;;0.00;0.00;;;11.80;99.90;;;;;;4992237;28;19917;-93
2021/03/17 12:43:19;;;;;;;0.10;0.10;;;11.80;99.90;;;;;;4991329;28;20030;-93
2021/03/17 12:45:47;;;;;;;2.50;0.50;;;11.50;99.90;;;;;;4987717;28;20034;-93
2021/03/17 12:48:14;;;;;;;1.38;0.98;;;11.60;99.90;;;;;;4992577;28;20441;-94
2021/03/17 12:50:42;;;;;;;0.10;0.10;;;11.70;99.90;;;;;;4987721;28;20027;-93
2021/03/17 12:53:08;;;;;;;0.10;0.10;;;11.30;99.90;;;;;;4988079;28;20383;-93
2021/03/17 12:55:34;;;;;;;1.45;0.63;;;11.30;99.90;;;;;;4990721;28;20022;-94
2021/03/17 12:58:00;;;;;;;0.73;0.53;;;11.00;99.90;;;;;;4989878;28;20038;-93
2021/03/17 13:00:30;;;;;;;0.10;0.10;;;10.60;99.90;;;;;;4991729;28;20261;-93
2021/03/17 13:02:58;;;;;;;0.10;0.10;;;10.50;99.90;;;;;;4990570;28;20027;-92
2021/03/17 13:05:25;;;;;;;0.00;0.00;;;9.80;99.90;;;;;;4981767;28;20034;-93
2021/03/17 13:07:53;;;;;;;0.30;0.30;;;9.80;99.90;;;;;;4991531;28;20088;-92
2021/03/17 13:10:22;;;;;;;0.10;0.10;;;9.80;99.90;;;;;;4973614;28;20078;-94
2021/03/17 13:12:50;;;;;;;0.10;0.10;;;9.90;99.90;;;;;;4991418;28;20491;-92
2021/03/17 13:15:17;;;;;;;0.45;0.45;;;10.00;99.90;;;;;;4987589;28;20106;-92